LKKB weather

Kbely Air Base
Prague, Prague (capital city), Czechia

Public forecast

Using degrees Celsius for public forecast. Weather courtesy of forecast.io.

METAR (pilot weather report)

Retrieved 2019/05/23 02:00 UTC (10 minutes ago):

LKKB 230200Z 29009KT 9999 -RA BKN026 11/08 Q1017

TAF (pilot weather forecast)

Forecast is more than 12 hours old.

Retrieved 2019/05/22 00:00 UTC (1 day ago):

TAF LKKB 222300Z 2300/2400 29014KT 9999 OVC025 BECMG 2302/2304 30010KT BKN030 BECMG 2312/2314 CAVOK